sensor_id;sensor_type;location;lat;lon;timestamp;temperature;humidity
25410;DHT22;13339;50.840;4.346;2022-10-18T00:00:43;19.80;99.90
25410;DHT22;13339;50.840;4.346;2022-10-18T00:03:09;19.80;99.90
25410;DHT22;13339;50.840;4.346;2022-10-18T00:05:34;19.80;99.90
25410;DHT22;13339;50.840;4.346;2022-10-18T00:08:00;19.90;99.90
25410;DHT22;13339;50.840;4.346;2022-10-18T00:10:26;19.80;99.90
25410;DHT22;13339;50.840;4.346;2022-10-18T00:12:51;19.80;99.90
25410;DHT22;13339;50.840;4.346;2022-10-18T00:15:17;19.80;99.90
25410;DHT22;13339;50.840;4.346;2022-10-18T00:17:43;19.70;99.90
25410;DHT22;13339;50.840;4.346;2022-10-18T00:20:10;19.80;99.90
25410;DHT22;13339;50.840;4.346;2022-10-18T00:22:39;19.70;99.90
25410;DHT22;13339;50.840;4.346;2022-10-18T00:25:06;19.70;99.90
25410;DHT22;13339;50.840;4.346;2022-10-18T00:27:32;19.70;99.90
25410;DHT22;13339;50.840;4.346;2022-10-18T00:29:57;19.70;99.90
25410;DHT22;13339;50.840;4.346;2022-10-18T00:32:24;19.70;99.90
25410;DHT22;13339;50.840;4.346;2022-10-18T00:34:49;19.70;99.90
25410;DHT22;13339;50.840;4.346;2022-10-18T00:37:15;19.70;99.90
25410;DHT22;13339;50.840;4.346;2022-10-18T00:39:41;19.60;99.90
25410;DHT22;13339;50.840;4.346;2022-10-18T00:42:08;19.60;99.90
25410;DHT22;13339;50.840;4.346;2022-10-18T00:47:06;19.70;99.90
25410;DHT22;13339;50.840;4.346;2022-10-18T00:49:41;19.70;99.90
25410;DHT22;13339;50.840;4.346;2022-10-18T00:52:17;19.80;99.90
25410;DHT22;13339;50.840;4.346;2022-10-18T00:54:45;19.80;99.90
25410;DHT22;13339;50.840;4.346;2022-10-18T00:57:12;19.80;99.90
25410;DHT22;13339;50.840;4.346;2022-10-18T00:59:38;19.70;99.90
25410;DHT22;13339;50.840;4.346;2022-10-18T01:02:05;19.70;99.90
25410;DHT22;13339;50.840;4.346;2022-10-18T01:04:31;19.70;99.90
25410;DHT22;13339;50.840;4.346;2022-10-18T01:09:38;19.60;99.90
25410;DHT22;13339;50.840;4.346;2022-10-18T01:12:28;19.70;99.90
25410;DHT22;13339;50.840;4.346;2022-10-18T01:15:23;19.70;99.90
25410;DHT22;13339;50.840;4.346;2022-10-18T01:21:14;19.70;99.90
25410;DHT22;13339;50.840;4.346;2022-10-18T01:24:11;19.60;99.90
25410;DHT22;13339;50.840;4.346;2022-10-18T01:29:41;19.60;99.90
25410;DHT22;13339;50.840;4.346;2022-10-18T01:32:14;19.60;99.90
25410;DHT22;13339;50.840;4.346;2022-10-18T01:34:42;19.60;99.90
25410;DHT22;13339;50.840;4.346;2022-10-18T01:37:13;19.60;99.90
25410;DHT22;13339;50.840;4.346;2022-10-18T01:39:44;19.60;99.90
25410;DHT22;13339;50.840;4.346;2022-10-18T01:42:12;19.60;99.90
25410;DHT22;13339;50.840;4.346;2022-10-18T01:44:40;19.50;99.90
25410;DHT22;13339;50.840;4.346;2022-10-18T01:47:10;19.50;99.90
25410;DHT22;13339;50.840;4.346;2022-10-18T01:49:36;19.50;99.90
25410;DHT22;13339;50.840;4.346;2022-10-18T01:52:02;19.50;99.90
25410;DHT22;13339;50.840;4.346;2022-10-18T01:54:34;19.60;99.90
25410;DHT22;13339;50.840;4.346;2022-10-18T01:57:33;19.60;99.90
25410;DHT22;13339;50.840;4.346;2022-10-18T02:00:14;19.70;99.90
25410;DHT22;13339;50.840;4.346;2022-10-18T02:02:56;19.70;99.90
25410;DHT22;13339;50.840;4.346;2022-10-18T02:05:52;19.60;99.90
25410;DHT22;13339;50.840;4.346;2022-10-18T02:11:07;19.60;99.90
25410;DHT22;13339;50.840;4.346;2022-10-18T02:13:41;19.40;99.90
25410;DHT22;13339;50.840;4.346;2022-10-18T02:16:10;19.50;99.90
25410;DHT22;13339;50.840;4.346;2022-10-18T02:18:43;19.50;99.90
25410;DHT22;13339;50.840;4.346;2022-10-18T02:21:12;19.50;99.90
25410;DHT22;13339;50.840;4.346;2022-10-18T02:23:42;19.50;99.90
25410;DHT22;13339;50.840;4.346;2022-10-18T02:26:08;19.50;99.90
25410;DHT22;13339;50.840;4.346;2022-10-18T02:28:33;19.50;99.90
25410;DHT22;13339;50.840;4.346;2022-10-18T02:31:30;19.50;99.90
25410;DHT22;13339;50.840;4.346;2022-10-18T02:34:34;19.50;99.90
25410;DHT22;13339;50.840;4.346;2022-10-18T02:36:59;19.50;99.90
25410;DHT22;13339;50.840;4.346;2022-10-18T02:39:33;19.50;99.90
25410;DHT22;13339;50.840;4.346;2022-10-18T02:42:00;19.60;99.90
25410;DHT22;13339;50.840;4.346;2022-10-18T02:44:31;19.60;99.90
25410;DHT22;13339;50.840;4.346;2022-10-18T02:46:57;19.50;99.90
25410;DHT22;13339;50.840;4.346;2022-10-18T02:49:22;19.50;99.90
25410;DHT22;13339;50.840;4.346;2022-10-18T02:51:48;19.50;99.90
25410;DHT22;13339;50.840;4.346;2022-10-18T02:54:13;19.60;99.90
25410;DHT22;13339;50.840;4.346;2022-10-18T02:56:39;19.60;99.90
25410;DHT22;13339;50.840;4.346;2022-10-18T02:59:05;19.50;99.90
25410;DHT22;13339;50.840;4.346;2022-10-18T03:01:32;19.50;99.90
25410;DHT22;13339;50.840;4.346;2022-10-18T03:03:58;19.40;99.90
25410;DHT22;13339;50.840;4.346;2022-10-18T03:06:24;19.30;99.90
25410;DHT22;13339;50.840;4.346;2022-10-18T03:08:50;19.40;99.90
25410;DHT22;13339;50.840;4.346;2022-10-18T03:11:15;19.30;99.90
25410;DHT22;13339;50.840;4.346;2022-10-18T03:13:41;19.30;99.90
25410;DHT22;13339;50.840;4.346;2022-10-18T03:16:06;19.30;99.90
25410;DHT22;13339;50.840;4.346;2022-10-18T03:18:32;19.30;99.90
25410;DHT22;13339;50.840;4.346;2022-10-18T03:20:57;19.40;99.90
25410;DHT22;13339;50.840;4.346;2022-10-18T03:23:23;19.40;99.90
25410;DHT22;13339;50.840;4.346;2022-10-18T03:25:49;19.50;99.90
25410;DHT22;13339;50.840;4.346;2022-10-18T03:28:14;19.40;99.90
25410;DHT22;13339;50.840;4.346;2022-10-18T03:30:40;19.50;99.90
25410;DHT22;13339;50.840;4.346;2022-10-18T03:33:06;19.30;99.90
25410;DHT22;13339;50.840;4.346;2022-10-18T03:35:31;19.30;99.90
25410;DHT22;13339;50.840;4.346;2022-10-18T03:37:57;19.20;99.90
25410;DHT22;13339;50.840;4.346;2022-10-18T03:40:22;19.10;99.90
25410;DHT22;13339;50.840;4.346;2022-10-18T03:42:48;19.00;99.90
25410;DHT22;13339;50.840;4.346;2022-10-18T03:45:13;19.10;99.90
25410;DHT22;13339;50.840;4.346;2022-10-18T03:47:39;19.00;99.90
25410;DHT22;13339;50.840;4.346;2022-10-18T03:50:05;19.00;99.90
25410;DHT22;13339;50.840;4.346;2022-10-18T03:52:30;18.90;99.90
25410;DHT22;13339;50.840;4.346;2022-10-18T03:54:56;18.80;99.90
25410;DHT22;13339;50.840;4.346;2022-10-18T03:57:21;18.80;99.90
25410;DHT22;13339;50.840;4.346;2022-10-18T03:59:47;18.80;99.90
25410;DHT22;13339;50.840;4.346;2022-10-18T04:02:13;18.80;99.90
25410;DHT22;13339;50.840;4.346;2022-10-18T04:04:38;18.80;99.90
25410;DHT22;13339;50.840;4.346;2022-10-18T04:07:04;18.80;99.90
25410;DHT22;13339;50.840;4.346;2022-10-18T04:09:30;18.80;99.90
25410;DHT22;13339;50.840;4.346;2022-10-18T04:11:55;18.90;99.90
25410;DHT22;13339;50.840;4.346;2022-10-18T04:14:21;18.80;99.90
25410;DHT22;13339;50.840;4.346;2022-10-18T04:16:46;18.70;99.90
25410;DHT22;13339;50.840;4.346;2022-10-18T04:19:12;18.70;99.90
25410;DHT22;13339;50.840;4.346;2022-10-18T04:21:38;18.40;99.90
25410;DHT22;13339;50.840;4.346;2022-10-18T04:24:04;18.40;99.90
25410;DHT22;13339;50.840;4.346;2022-10-18T04:26:30;18.30;99.90
25410;DHT22;13339;50.840;4.346;2022-10-18T04:28:55;18.40;99.90
25410;DHT22;13339;50.840;4.346;2022-10-18T04:31:21;18.40;99.90
25410;DHT22;13339;50.840;4.346;2022-10-18T04:33:47;18.30;99.90
25410;DHT22;13339;50.840;4.346;2022-10-18T04:36:12;18.30;99.90
25410;DHT22;13339;50.840;4.346;2022-10-18T04:38:38;18.10;99.90
25410;DHT22;13339;50.840;4.346;2022-10-18T04:41:03;18.10;99.90
25410;DHT22;13339;50.840;4.346;2022-10-18T04:43:29;18.00;99.90
25410;DHT22;13339;50.840;4.346;2022-10-18T04:45:55;18.00;99.90
25410;DHT22;13339;50.840;4.346;2022-10-18T04:48:20;18.10;99.90
25410;DHT22;13339;50.840;4.346;2022-10-18T04:50:50;18.10;99.90
25410;DHT22;13339;50.840;4.346;2022-10-18T04:53:16;18.10;99.90
25410;DHT22;13339;50.840;4.346;2022-10-18T04:55:47;17.90;99.90
25410;DHT22;13339;50.840;4.346;2022-10-18T04:58:14;18.10;99.90
25410;DHT22;13339;50.840;4.346;2022-10-18T05:00:39;18.10;99.90
25410;DHT22;13339;50.840;4.346;2022-10-18T05:03:06;18.00;99.90
25410;DHT22;13339;50.840;4.346;2022-10-18T05:05:32;18.10;99.90
25410;DHT22;13339;50.840;4.346;2022-10-18T05:07:57;18.20;99.90
25410;DHT22;13339;50.840;4.346;2022-10-18T05:10:24;18.30;99.90
25410;DHT22;13339;50.840;4.346;2022-10-18T05:12:50;18.50;99.90
25410;DHT22;13339;50.840;4.346;2022-10-18T05:15:16;18.60;99.90
25410;DHT22;13339;50.840;4.346;2022-10-18T05:17:41;18.60;99.90
25410;DHT22;13339;50.840;4.346;2022-10-18T05:20:07;18.70;99.90
25410;DHT22;13339;50.840;4.346;2022-10-18T05:22:33;18.70;99.90
25410;DHT22;13339;50.840;4.346;2022-10-18T05:24:58;18.60;99.90
25410;DHT22;13339;50.840;4.346;2022-10-18T05:27:24;18.40;99.90
25410;DHT22;13339;50.840;4.346;2022-10-18T05:29:50;18.30;99.90
25410;DHT22;13339;50.840;4.346;2022-10-18T05:32:15;18.20;99.90
25410;DHT22;13339;50.840;4.346;2022-10-18T05:34:41;18.30;99.90
25410;DHT22;13339;50.840;4.346;2022-10-18T05:37:06;18.40;99.90
25410;DHT22;13339;50.840;4.346;2022-10-18T05:39:32;18.50;99.90
25410;DHT22;13339;50.840;4.346;2022-10-18T05:41:58;18.60;99.90
25410;DHT22;13339;50.840;4.346;2022-10-18T05:44:24;18.70;99.90
25410;DHT22;13339;50.840;4.346;2022-10-18T05:46:50;18.60;99.90
25410;DHT22;13339;50.840;4.346;2022-10-18T05:49:15;18.70;99.90
25410;DHT22;13339;50.840;4.346;2022-10-18T05:51:41;18.60;99.90
25410;DHT22;13339;50.840;4.346;2022-10-18T05:54:07;18.70;99.90
25410;DHT22;13339;50.840;4.346;2022-10-18T05:56:33;18.70;99.90
25410;DHT22;13339;50.840;4.346;2022-10-18T05:58:59;18.80;99.90
25410;DHT22;13339;50.840;4.346;2022-10-18T06:01:24;18.80;99.90
25410;DHT22;13339;50.840;4.346;2022-10-18T06:03:50;18.80;99.90
25410;DHT22;13339;50.840;4.346;2022-10-18T06:06:15;18.90;99.90
25410;DHT22;13339;50.840;4.346;2022-10-18T06:08:42;18.90;99.90
25410;DHT22;13339;50.840;4.346;2022-10-18T06:11:10;18.90;99.90
25410;DHT22;13339;50.840;4.346;2022-10-18T06:13:44;19.00;99.90
25410;DHT22;13339;50.840;4.346;2022-10-18T06:16:11;19.00;99.90
25410;DHT22;13339;50.840;4.346;2022-10-18T06:18:37;18.90;99.90
25410;DHT22;13339;50.840;4.346;2022-10-18T06:21:03;18.90;99.90
25410;DHT22;13339;50.840;4.346;2022-10-18T06:23:29;18.90;99.90
25410;DHT22;13339;50.840;4.346;2022-10-18T06:25:59;19.00;99.90
25410;DHT22;13339;50.840;4.346;2022-10-18T06:28:25;18.90;99.90
25410;DHT22;13339;50.840;4.346;2022-10-18T06:30:51;18.70;99.90
25410;DHT22;13339;50.840;4.346;2022-10-18T06:33:16;18.70;99.90
25410;DHT22;13339;50.840;4.346;2022-10-18T06:35:42;18.70;99.90
25410;DHT22;13339;50.840;4.346;2022-10-18T06:38:07;18.80;99.90
25410;DHT22;13339;50.840;4.346;2022-10-18T06:40:33;18.80;99.90
25410;DHT22;13339;50.840;4.346;2022-10-18T06:43:03;18.90;99.90
25410;DHT22;13339;50.840;4.346;2022-10-18T06:45:32;18.90;99.90
25410;DHT22;13339;50.840;4.346;2022-10-18T06:47:58;18.90;99.90
25410;DHT22;13339;50.840;4.346;2022-10-18T06:50:24;18.90;99.90
25410;DHT22;13339;50.840;4.346;2022-10-18T06:52:51;18.90;99.90
25410;DHT22;13339;50.840;4.346;2022-10-18T06:55:17;18.90;99.90
25410;DHT22;13339;50.840;4.346;2022-10-18T06:57:42;19.00;99.90
25410;DHT22;13339;50.840;4.346;2022-10-18T07:00:08;18.90;99.90
25410;DHT22;13339;50.840;4.346;2022-10-18T07:02:34;18.90;99.90
25410;DHT22;13339;50.840;4.346;2022-10-18T07:05:00;18.70;99.90
25410;DHT22;13339;50.840;4.346;2022-10-18T07:07:25;18.80;99.90
25410;DHT22;13339;50.840;4.346;2022-10-18T07:09:51;18.80;99.90
25410;DHT22;13339;50.840;4.346;2022-10-18T07:12:16;18.90;99.90
25410;DHT22;13339;50.840;4.346;2022-10-18T07:14:42;18.80;99.90
25410;DHT22;13339;50.840;4.346;2022-10-18T07:17:08;18.70;99.90
25410;DHT22;13339;50.840;4.346;2022-10-18T07:19:33;18.80;99.90
25410;DHT22;13339;50.840;4.346;2022-10-18T07:21:59;18.90;99.90
25410;DHT22;13339;50.840;4.346;2022-10-18T07:24:24;18.90;99.90
25410;DHT22;13339;50.840;4.346;2022-10-18T07:26:50;18.90;99.90
25410;DHT22;13339;50.840;4.346;2022-10-18T07:29:15;19.00;99.90
25410;DHT22;13339;50.840;4.346;2022-10-18T07:31:41;19.00;99.90
25410;DHT22;13339;50.840;4.346;2022-10-18T07:34:11;19.00;99.90
25410;DHT22;13339;50.840;4.346;2022-10-18T07:36:37;19.10;99.90
25410;DHT22;13339;50.840;4.346;2022-10-18T07:39:04;19.10;99.90
25410;DHT22;13339;50.840;4.346;2022-10-18T07:41:29;19.10;99.90
25410;DHT22;13339;50.840;4.346;2022-10-18T07:43:58;19.10;99.90
25410;DHT22;13339;50.840;4.346;2022-10-18T07:46:24;19.00;99.90
25410;DHT22;13339;50.840;4.346;2022-10-18T07:48:50;19.00;99.90
25410;DHT22;13339;50.840;4.346;2022-10-18T07:51:16;19.10;99.90
25410;DHT22;13339;50.840;4.346;2022-10-18T07:53:42;19.10;99.90
25410;DHT22;13339;50.840;4.346;2022-10-18T07:56:10;19.00;99.90
25410;DHT22;13339;50.840;4.346;2022-10-18T07:58:43;19.10;99.90
25410;DHT22;13339;50.840;4.346;2022-10-18T08:01:10;18.80;99.90
25410;DHT22;13339;50.840;4.346;2022-10-18T08:03:37;18.90;99.90
25410;DHT22;13339;50.840;4.346;2022-10-18T08:06:05;18.90;99.90
25410;DHT22;13339;50.840;4.346;2022-10-18T08:08:32;19.00;99.90
25410;DHT22;13339;50.840;4.346;2022-10-18T08:11:02;19.00;99.90
25410;DHT22;13339;50.840;4.346;2022-10-18T08:13:28;19.00;99.90
25410;DHT22;13339;50.840;4.346;2022-10-18T08:16:03;19.10;99.90
25410;DHT22;13339;50.840;4.346;2022-10-18T08:18:29;19.10;99.90
25410;DHT22;13339;50.840;4.346;2022-10-18T08:20:55;18.60;99.90
25410;DHT22;13339;50.840;4.346;2022-10-18T08:23:21;18.60;99.90
25410;DHT22;13339;50.840;4.346;2022-10-18T08:25:46;18.70;99.90
25410;DHT22;13339;50.840;4.346;2022-10-18T08:28:12;18.70;99.90
25410;DHT22;13339;50.840;4.346;2022-10-18T08:30:39;18.90;99.90
25410;DHT22;13339;50.840;4.346;2022-10-18T08:33:04;18.80;99.90
25410;DHT22;13339;50.840;4.346;2022-10-18T08:35:30;18.40;99.90
25410;DHT22;13339;50.840;4.346;2022-10-18T08:37:56;18.30;99.90
25410;DHT22;13339;50.840;4.346;2022-10-18T08:40:22;18.30;99.90
25410;DHT22;13339;50.840;4.346;2022-10-18T08:43:06;18.30;99.90
25410;DHT22;13339;50.840;4.346;2022-10-18T08:45:38;18.30;99.90
25410;DHT22;13339;50.840;4.346;2022-10-18T08:48:08;18.30;99.90
25410;DHT22;13339;50.840;4.346;2022-10-18T08:50:41;18.30;99.90
25410;DHT22;13339;50.840;4.346;2022-10-18T08:55:54;18.40;99.90
25410;DHT22;13339;50.840;4.346;2022-10-18T08:58:24;18.60;99.90
25410;DHT22;13339;50.840;4.346;2022-10-18T09:03:28;18.60;99.90
25410;DHT22;13339;50.840;4.346;2022-10-18T09:08:52;18.60;99.90
25410;DHT22;13339;50.840;4.346;2022-10-18T09:17:14;18.70;99.90
25410;DHT22;13339;50.840;4.346;2022-10-18T09:19:49;18.80;99.90
25410;DHT22;13339;50.840;4.346;2022-10-18T09:22:23;19.00;99.90
25410;DHT22;13339;50.840;4.346;2022-10-18T09:27:41;19.20;99.90
25410;DHT22;13339;50.840;4.346;2022-10-18T09:35:51;19.30;99.90
25410;DHT22;13339;50.840;4.346;2022-10-18T09:38:21;19.30;99.90
25410;DHT22;13339;50.840;4.346;2022-10-18T09:40:57;19.40;99.90
25410;DHT22;13339;50.840;4.346;2022-10-18T09:43:44;19.00;99.90
25410;DHT22;13339;50.840;4.346;2022-10-18T09:46:12;18.90;99.90
25410;DHT22;13339;50.840;4.346;2022-10-18T09:48:47;19.00;99.90
25410;DHT22;13339;50.840;4.346;2022-10-18T09:51:21;19.00;99.90
25410;DHT22;13339;50.840;4.346;2022-10-18T09:53:55;19.00;99.90
25410;DHT22;13339;50.840;4.346;2022-10-18T09:56:28;18.90;99.90
25410;DHT22;13339;50.840;4.346;2022-10-18T09:58:54;18.90;99.90
25410;DHT22;13339;50.840;4.346;2022-10-18T10:01:27;19.00;99.90
25410;DHT22;13339;50.840;4.346;2022-10-18T10:03:53;19.10;99.90
25410;DHT22;13339;50.840;4.346;2022-10-18T10:06:30;19.20;99.90
25410;DHT22;13339;50.840;4.346;2022-10-18T10:09:03;19.30;99.90
25410;DHT22;13339;50.840;4.346;2022-10-18T10:11:34;19.40;99.90
25410;DHT22;13339;50.840;4.346;2022-10-18T10:14:19;19.60;99.90
25410;DHT22;13339;50.840;4.346;2022-10-18T10:17:01;19.70;99.90
25410;DHT22;13339;50.840;4.346;2022-10-18T10:19:34;19.70;99.90
25410;DHT22;13339;50.840;4.346;2022-10-18T10:22:07;19.80;99.90
25410;DHT22;13339;50.840;4.346;2022-10-18T10:27:20;20.00;99.90
25410;DHT22;13339;50.840;4.346;2022-10-18T10:29:51;20.20;99.90
25410;DHT22;13339;50.840;4.346;2022-10-18T10:32:21;20.10;99.90
25410;DHT22;13339;50.840;4.346;2022-10-18T10:34:47;20.20;99.90
25410;DHT22;13339;50.840;4.346;2022-10-18T10:37:24;20.20;99.90
25410;DHT22;13339;50.840;4.346;2022-10-18T10:45:13;20.70;99.90
25410;DHT22;13339;50.840;4.346;2022-10-18T10:47:39;20.80;99.90
25410;DHT22;13339;50.840;4.346;2022-10-18T10:50:11;20.80;99.90
25410;DHT22;13339;50.840;4.346;2022-10-18T10:52:38;20.80;99.90
25410;DHT22;13339;50.840;4.346;2022-10-18T10:55:05;20.90;99.90
25410;DHT22;13339;50.840;4.346;2022-10-18T10:57:46;21.10;99.90
25410;DHT22;13339;50.840;4.346;2022-10-18T11:00:36;21.30;99.90
25410;DHT22;13339;50.840;4.346;2022-10-18T11:03:19;21.30;99.90
25410;DHT22;13339;50.840;4.346;2022-10-18T11:05:49;21.40;99.90
25410;DHT22;13339;50.840;4.346;2022-10-18T11:08:20;21.50;99.90
25410;DHT22;13339;50.840;4.346;2022-10-18T11:11:08;21.60;99.90
25410;DHT22;13339;50.840;4.346;2022-10-18T11:16:25;21.80;99.90
25410;DHT22;13339;50.840;4.346;2022-10-18T11:18:55;21.80;99.90
25410;DHT22;13339;50.840;4.346;2022-10-18T11:21:25;21.80;99.90
25410;DHT22;13339;50.840;4.346;2022-10-18T11:23:52;21.50;99.90
25410;DHT22;13339;50.840;4.346;2022-10-18T11:26:39;21.40;99.90
25410;DHT22;13339;50.840;4.346;2022-10-18T11:32:11;21.60;99.90
25410;DHT22;13339;50.840;4.346;2022-10-18T11:56:58;21.30;99.90
25410;DHT22;13339;50.840;4.346;2022-10-18T12:04:59;21.50;99.90
25410;DHT22;13339;50.840;4.346;2022-10-18T12:07:31;21.60;99.90
25410;DHT22;13339;50.840;4.346;2022-10-18T12:09:58;21.60;99.90
25410;DHT22;13339;50.840;4.346;2022-10-18T12:12:45;21.70;99.90
25410;DHT22;13339;50.840;4.346;2022-10-18T12:15:19;21.60;99.90
25410;DHT22;13339;50.840;4.346;2022-10-18T12:17:51;21.80;99.90
25410;DHT22;13339;50.840;4.346;2022-10-18T12:20:28;21.80;99.90
25410;DHT22;13339;50.840;4.346;2022-10-18T12:23:13;21.80;99.90
25410;DHT22;13339;50.840;4.346;2022-10-18T12:25:44;21.80;99.90
25410;DHT22;13339;50.840;4.346;2022-10-18T12:31:33;22.00;99.90
25410;DHT22;13339;50.840;4.346;2022-10-18T12:39:40;22.00;99.90
25410;DHT22;13339;50.840;4.346;2022-10-18T12:42:20;22.10;99.90
25410;DHT22;13339;50.840;4.346;2022-10-18T12:44:46;22.10;99.90
25410;DHT22;13339;50.840;4.346;2022-10-18T12:47:23;21.80;99.90
25410;DHT22;13339;50.840;4.346;2022-10-18T12:50:00;21.90;99.90
25410;DHT22;13339;50.840;4.346;2022-10-18T12:52:28;21.90;99.90
25410;DHT22;13339;50.840;4.346;2022-10-18T13:29:47;21.60;99.90
25410;DHT22;13339;50.840;4.346;2022-10-18T13:32:31;21.50;99.90
25410;DHT22;13339;50.840;4.346;2022-10-18T13:34:59;21.40;99.90
25410;DHT22;13339;50.840;4.346;2022-10-18T13:37:25;21.40;99.90
25410;DHT22;13339;50.840;4.346;2022-10-18T13:40:20;21.20;99.90
25410;DHT22;13339;50.840;4.346;2022-10-18T13:42:46;21.20;99.90
25410;DHT22;13339;50.840;4.346;2022-10-18T13:48:42;21.30;99.90
25410;DHT22;13339;50.840;4.346;2022-10-18T13:51:41;21.30;99.90
25410;DHT22;13339;50.840;4.346;2022-10-18T13:59:48;21.20;99.90
25410;DHT22;13339;50.840;4.346;2022-10-18T14:02:41;21.10;99.90
25410;DHT22;13339;50.840;4.346;2022-10-18T14:08:10;21.20;99.90
25410;DHT22;13339;50.840;4.346;2022-10-18T14:13:37;21.30;99.90
25410;DHT22;13339;50.840;4.346;2022-10-18T14:18:46;21.10;99.90
25410;DHT22;13339;50.840;4.346;2022-10-18T14:21:19;21.10;99.90
25410;DHT22;13339;50.840;4.346;2022-10-18T14:23:47;21.10;99.90
25410;DHT22;13339;50.840;4.346;2022-10-18T14:26:17;21.00;99.90
25410;DHT22;13339;50.840;4.346;2022-10-18T14:28:43;20.90;99.90
25410;DHT22;13339;50.840;4.346;2022-10-18T14:31:14;20.80;99.90
25410;DHT22;13339;50.840;4.346;2022-10-18T14:33:56;20.70;99.90
25410;DHT22;13339;50.840;4.346;2022-10-18T14:36:24;20.60;99.90
25410;DHT22;13339;50.840;4.346;2022-10-18T14:38:54;20.70;99.90
25410;DHT22;13339;50.840;4.346;2022-10-18T14:41:25;20.80;99.90
25410;DHT22;13339;50.840;4.346;2022-10-18T14:44:08;20.90;99.90
25410;DHT22;13339;50.840;4.346;2022-10-18T14:46:44;21.10;99.90
25410;DHT22;13339;50.840;4.346;2022-10-18T14:49:11;20.90;99.90
25410;DHT22;13339;50.840;4.346;2022-10-18T14:51:39;20.90;99.90
25410;DHT22;13339;50.840;4.346;2022-10-18T14:54:11;20.90;99.90
25410;DHT22;13339;50.840;4.346;2022-10-18T14:56:39;20.90;99.90
25410;DHT22;13339;50.840;4.346;2022-10-18T14:59:20;21.00;99.90
25410;DHT22;13339;50.840;4.346;2022-10-18T15:04:17;20.70;99.90
25410;DHT22;13339;50.840;4.346;2022-10-18T15:06:43;20.70;99.90
25410;DHT22;13339;50.840;4.346;2022-10-18T15:09:10;20.70;99.90
25410;DHT22;13339;50.840;4.346;2022-10-18T15:11:39;20.70;99.90
25410;DHT22;13339;50.840;4.346;2022-10-18T15:14:09;20.80;99.90
25410;DHT22;13339;50.840;4.346;2022-10-18T15:16:37;20.80;99.90
25410;DHT22;13339;50.840;4.346;2022-10-18T15:19:35;20.90;99.90
25410;DHT22;13339;50.840;4.346;2022-10-18T15:22:02;20.90;99.90
25410;DHT22;13339;50.840;4.346;2022-10-18T15:24:37;20.90;99.90
25410;DHT22;13339;50.840;4.346;2022-10-18T15:27:28;20.90;99.90
25410;DHT22;13339;50.840;4.346;2022-10-18T15:29:54;20.90;99.90
25410;DHT22;13339;50.840;4.346;2022-10-18T15:32:29;20.80;99.90
25410;DHT22;13339;50.840;4.346;2022-10-18T15:35:07;20.70;99.90
25410;DHT22;13339;50.840;4.346;2022-10-18T15:37:40;20.70;99.90
25410;DHT22;13339;50.840;4.346;2022-10-18T15:40:29;20.60;99.90
25410;DHT22;13339;50.840;4.346;2022-10-18T15:42:58;20.70;99.90
25410;DHT22;13339;50.840;4.346;2022-10-18T15:50:40;20.80;99.90
25410;DHT22;13339;50.840;4.346;2022-10-18T15:55:50;20.40;99.90
25410;DHT22;13339;50.840;4.346;2022-10-18T15:58:29;20.40;99.90
25410;DHT22;13339;50.840;4.346;2022-10-18T16:01:00;20.50;99.90
25410;DHT22;13339;50.840;4.346;2022-10-18T16:03:26;20.50;99.90
25410;DHT22;13339;50.840;4.346;2022-10-18T16:05:58;20.30;99.90
25410;DHT22;13339;50.840;4.346;2022-10-18T16:08:28;20.30;99.90
25410;DHT22;13339;50.840;4.346;2022-10-18T16:10:58;20.30;99.90
25410;DHT22;13339;50.840;4.346;2022-10-18T16:13:25;20.40;99.90
25410;DHT22;13339;50.840;4.346;2022-10-18T16:15:51;20.40;99.90
25410;DHT22;13339;50.840;4.346;2022-10-18T16:18:20;20.40;99.90
25410;DHT22;13339;50.840;4.346;2022-10-18T16:20:46;20.30;99.90
25410;DHT22;13339;50.840;4.346;2022-10-18T16:23:18;20.20;99.90
25410;DHT22;13339;50.840;4.346;2022-10-18T16:25:44;20.10;99.90
25410;DHT22;13339;50.840;4.346;2022-10-18T16:28:18;19.90;99.90
25410;DHT22;13339;50.840;4.346;2022-10-18T16:30:49;19.90;99.90
25410;DHT22;13339;50.840;4.346;2022-10-18T16:33:17;19.80;99.90
25410;DHT22;13339;50.840;4.346;2022-10-18T16:35:42;19.90;99.90
25410;DHT22;13339;50.840;4.346;2022-10-18T16:38:18;20.00;99.90
25410;DHT22;13339;50.840;4.346;2022-10-18T16:40:44;20.00;99.90
25410;DHT22;13339;50.840;4.346;2022-10-18T16:43:10;19.90;99.90
25410;DHT22;13339;50.840;4.346;2022-10-18T16:45:36;19.90;99.90
25410;DHT22;13339;50.840;4.346;2022-10-18T16:48:01;20.00;99.90
25410;DHT22;13339;50.840;4.346;2022-10-18T16:50:27;20.00;99.90
25410;DHT22;13339;50.840;4.346;2022-10-18T16:52:52;20.10;99.90
25410;DHT22;13339;50.840;4.346;2022-10-18T16:55:18;19.90;99.90
25410;DHT22;13339;50.840;4.346;2022-10-18T16:57:49;19.80;99.90
25410;DHT22;13339;50.840;4.346;2022-10-18T17:00:19;19.70;99.90
25410;DHT22;13339;50.840;4.346;2022-10-18T17:02:48;19.80;99.90
25410;DHT22;13339;50.840;4.346;2022-10-18T17:05:15;19.80;99.90
25410;DHT22;13339;50.840;4.346;2022-10-18T17:07:41;19.60;99.90
25410;DHT22;13339;50.840;4.346;2022-10-18T17:10:09;19.60;99.90
25410;DHT22;13339;50.840;4.346;2022-10-18T17:12:35;19.40;99.90
25410;DHT22;13339;50.840;4.346;2022-10-18T17:15:01;19.40;99.90
25410;DHT22;13339;50.840;4.346;2022-10-18T17:17:27;19.40;99.90
25410;DHT22;13339;50.840;4.346;2022-10-18T17:19:52;19.30;99.90
25410;DHT22;13339;50.840;4.346;2022-10-18T17:22:18;19.40;99.90
25410;DHT22;13339;50.840;4.346;2022-10-18T17:24:44;19.20;99.90
25410;DHT22;13339;50.840;4.346;2022-10-18T17:27:10;19.20;99.90
25410;DHT22;13339;50.840;4.346;2022-10-18T17:29:35;19.20;99.90
25410;DHT22;13339;50.840;4.346;2022-10-18T17:32:01;19.00;99.90
25410;DHT22;13339;50.840;4.346;2022-10-18T17:34:27;18.90;99.90
25410;DHT22;13339;50.840;4.346;2022-10-18T17:36:52;18.90;99.90
25410;DHT22;13339;50.840;4.346;2022-10-18T17:39:18;18.90;99.90
25410;DHT22;13339;50.840;4.346;2022-10-18T17:41:44;19.00;99.90
25410;DHT22;13339;50.840;4.346;2022-10-18T17:44:09;19.10;99.90
25410;DHT22;13339;50.840;4.346;2022-10-18T17:46:35;19.10;99.90
25410;DHT22;13339;50.840;4.346;2022-10-18T17:49:01;18.90;99.90
25410;DHT22;13339;50.840;4.346;2022-10-18T17:51:26;18.90;99.90
25410;DHT22;13339;50.840;4.346;2022-10-18T17:53:52;18.90;99.90
25410;DHT22;13339;50.840;4.346;2022-10-18T17:56:18;18.90;99.90
25410;DHT22;13339;50.840;4.346;2022-10-18T17:58:44;19.00;99.90
25410;DHT22;13339;50.840;4.346;2022-10-18T18:01:15;19.00;99.90
25410;DHT22;13339;50.840;4.346;2022-10-18T18:03:42;18.60;99.90
25410;DHT22;13339;50.840;4.346;2022-10-18T18:06:12;18.60;99.90
25410;DHT22;13339;50.840;4.346;2022-10-18T18:08:38;18.60;99.90
25410;DHT22;13339;50.840;4.346;2022-10-18T18:11:03;18.80;99.90
25410;DHT22;13339;50.840;4.346;2022-10-18T18:13:29;18.60;99.90